PWSweather.com
Personal Weather Stations
Station Observations
AT335
PozzuoliIT 80078

PozzuoliIT 80078

Lat: 40.8299847, Lon: 14.1268428

Elevation: 70

Station Type: Davis Vantage Pro2

http://www.ik8sda.it/wx.htm

Latest ConditionsUpdated 7:30:02 AM GMT+01:01 Monday, Jan 22, 2018
Currently Today's Max Today's Min Today's Average
Temperature 47.0°F8.3°C 52.0°F11.1°C 46.5°F8.1°C 49.3°F9.6°C
Dew Point 35.4°F1.9°C 38.1°F3.4°C 34.2°F1.2°C 36.3°F2.4°C
Winds Calm Calm 16.1 mph NE25.9 kmh NE - 6.4 mph 10.3 kmh
Wind Gusts 1.2 mph1.9 kmh 25.3 mph40.7 kmh - -
Humidity 64% 67% 51% 61%
Pressure 29.95 in1014.2 mb 29.95 in1014.2 mb 29.83 in1010.2 mb -
Hour Temp Dew Point Humidity Winds Wind Gusts Pressure Precip Precip Rate Daily Precip Total
07:30 AM 47.0°F8.3°C 35.4°F1.9°C 64% Calm Calm 1.2 mph1.9 kmh 29.95 in1014.2 mb - 0.00 in0.0 mm 0.00 in0.0 mm
07:25 AM 47.1°F8.4°C 35.6°F2.0°C 64% Calm Calm 1.0 mph1.6 kmh 29.92 in1013.2 mb 0.00 in0.0 mm 0.00 in0.0 mm 0.00 in0.0 mm
07:24 AM 47.2°F8.4°C 35.3°F1.8°C 63% Calm Calm 1.0 mph1.6 kmh 29.92 in1013.2 mb 0.00 in0.0 mm 0.00 in0.0 mm 0.00 in0.0 mm
07:23 AM 47.4°F8.6°C 35.5°F1.9°C 63% Calm Calm 1.0 mph1.6 kmh 29.92 in1013.2 mb 0.00 in0.0 mm 0.00 in0.0 mm 0.00 in0.0 mm
07:22 AM 47.6°F8.7°C 35.6°F2.0°C 63% Calm Calm 1.0 mph1.6 kmh 29.92 in1013.2 mb 0.00 in0.0 mm 0.00 in0.0 mm 0.00 in0.0 mm
07:20 AM 48.0°F8.9°C 36.0°F2.2°C 63% Calm Calm 6.9 mph11.1 kmh 29.95 in1014.2 mb - 0.00 in0.0 mm 0.00 in0.0 mm
07:10 AM 47.7°F8.7°C 36.5°F2.5°C 65% 5.8 mph ENE9.3 kmh ENE 10.4 mph16.7 kmh 29.94 in1013.9 mb - 0.00 in0.0 mm 0.00 in0.0 mm
07:00 AM 47.3°F8.5°C 36.5°F2.5°C 66% 2.3 mph ENE3.7 kmh ENE 9.2 mph14.8 kmh 29.94 in1013.9 mb - 0.00 in0.0 mm 0.00 in0.0 mm
06:55 AM 46.7°F8.2°C 36.3°F2.4°C 67% 7.0 mph ENE11.3 kmh ENE 9.0 mph14.5 kmh 29.91 in1012.9 mb 0.00 in0.0 mm 0.00 in0.0 mm 0.00 in0.0 mm
06:54 AM 46.5°F8.1°C 36.2°F2.3°C 67% 3.0 mph NE4.8 kmh NE 5.0 mph8.0 kmh 29.91 in1012.9 mb 0.00 in0.0 mm 0.00 in0.0 mm 0.00 in0.0 mm
06:53 AM 46.5°F8.1°C 35.8°F2.1°C 66% 5.0 mph NE8.0 kmh NE 5.0 mph8.0 kmh 29.91 in1012.9 mb 0.00 in0.0 mm 0.00 in0.0 mm 0.00 in0.0 mm
06:52 AM 46.6°F8.1°C 35.9°F2.2°C 66% 4.0 mph NE6.4 kmh NE 4.0 mph6.4 kmh 29.91 in1012.9 mb 0.00 in0.0 mm 0.00 in0.0 mm 0.00 in0.0 mm
06:50 AM 46.6°F8.1°C 35.8°F2.1°C 66% 4.6 mph NE7.4 kmh NE 4.6 mph7.4 kmh 29.94 in1013.9 mb - 0.00 in0.0 mm 0.00 in0.0 mm
06:40 AM 46.8°F8.2°C 36.0°F2.2°C 66% 3.5 mph NE5.6 kmh NE 4.6 mph7.4 kmh 29.94 in1013.9 mb - 0.00 in0.0 mm 0.00 in0.0 mm
06:30 AM 47.2°F8.4°C 36.0°F2.2°C 65% 2.3 mph NE3.7 kmh NE 4.6 mph7.4 kmh 29.94 in1013.9 mb - 0.00 in0.0 mm 0.00 in0.0 mm
06:25 AM 47.4°F8.6°C 36.2°F2.3°C 65% 1.0 mph NE1.6 kmh NE 5.0 mph8.0 kmh 29.91 in1012.9 mb 0.00 in0.0 mm 0.00 in0.0 mm 0.00 in0.0 mm
06:24 AM 47.3°F8.5°C 36.5°F2.5°C 66% 3.0 mph NE4.8 kmh NE 5.0 mph8.0 kmh 29.91 in1012.9 mb 0.00 in0.0 mm 0.00 in0.0 mm 0.00 in0.0 mm
06:23 AM 47.2°F8.4°C 36.4°F2.4°C 66% 3.0 mph NE4.8 kmh NE 5.0 mph8.0 kmh 29.91 in1012.9 mb 0.00 in0.0 mm 0.00 in0.0 mm 0.00 in0.0 mm
06:22 AM 47.2°F8.4°C 36.4°F2.4°C 66% 4.0 mph NE6.4 kmh NE 4.0 mph6.4 kmh 29.91 in1012.9 mb 0.00 in0.0 mm 0.00 in0.0 mm 0.00 in0.0 mm
06:20 AM 47.1°F8.4°C 36.3°F2.4°C 66% 2.3 mph NE3.7 kmh NE 3.5 mph5.6 kmh 29.94 in1013.9 mb - 0.00 in0.0 mm 0.00 in0.0 mm
06:10 AM 46.9°F8.3°C 36.1°F2.3°C 66% 1.2 mph NE1.9 kmh NE 2.3 mph3.7 kmh 29.94 in1013.9 mb - 0.00 in0.0 mm 0.00 in0.0 mm
06:00 AM 47.6°F8.7°C 36.4°F2.4°C 65% 1.2 mph NE1.9 kmh NE 4.6 mph7.4 kmh 29.93 in1013.5 mb - 0.00 in0.0 mm 0.00 in0.0 mm
05:55 AM 47.7°F8.7°C 36.5°F2.5°C 65% 2.0 mph NE3.2 kmh NE 5.0 mph8.0 kmh 29.90 in1012.5 mb 0.00 in0.0 mm 0.00 in0.0 mm 0.00 in0.0 mm
05:53 AM 47.8°F8.8°C 36.6°F2.6°C 65% 3.0 mph NE4.8 kmh NE 4.0 mph6.4 kmh 29.90 in1012.5 mb 0.00 in0.0 mm 0.00 in0.0 mm 0.00 in0.0 mm
05:52 AM 47.8°F8.8°C 36.6°F2.6°C 65% 3.0 mph NE4.8 kmh NE 4.0 mph6.4 kmh 29.90 in1012.5 mb 0.00 in0.0 mm 0.00 in0.0 mm 0.00 in0.0 mm
05:50 AM 47.9°F8.8°C 36.7°F2.6°C 65% 1.2 mph NE1.9 kmh NE 9.2 mph14.8 kmh 29.94 in1013.9 mb - 0.00 in0.0 mm 0.00 in0.0 mm
05:40 AM 47.6°F8.7°C 36.8°F2.7°C 66% 2.3 mph E3.7 kmh E 6.9 mph11.1 kmh 29.93 in1013.5 mb - 0.00 in0.0 mm 0.00 in0.0 mm
05:30 AM 47.9°F8.8°C 36.7°F2.6°C 65% 3.5 mph E5.6 kmh E 5.8 mph9.3 kmh 29.92 in1013.2 mb - 0.00 in0.0 mm 0.00 in0.0 mm
05:25 AM 48.0°F8.9°C 36.8°F2.7°C 65% 2.0 mph E3.2 kmh E 6.0 mph9.7 kmh 29.89 in1012.2 mb 0.00 in0.0 mm 0.00 in0.0 mm 0.00 in0.0 mm
05:24 AM 48.1°F8.9°C 36.9°F2.7°C 65% 3.0 mph E4.8 kmh E 6.0 mph9.7 kmh 29.89 in1012.2 mb 0.00 in0.0 mm 0.00 in0.0 mm 0.00 in0.0 mm
05:23 AM 48.1°F8.9°C 36.9°F2.7°C 65% 5.0 mph E8.0 kmh E 6.0 mph9.7 kmh 29.89 in1012.2 mb 0.00 in0.0 mm 0.00 in0.0 mm 0.00 in0.0 mm
05:21 AM 48.1°F8.9°C 36.9°F2.7°C 65% 5.0 mph E8.0 kmh E 5.0 mph8.0 kmh 29.90 in1012.5 mb 0.00 in0.0 mm 0.00 in0.0 mm 0.00 in0.0 mm
05:20 AM 48.2°F9.0°C 37.0°F2.8°C 65% 3.5 mph E5.6 kmh E 5.8 mph9.3 kmh 29.92 in1013.2 mb - 0.00 in0.0 mm 0.00 in0.0 mm
05:10 AM 48.5°F9.2°C 36.9°F2.7°C 64% 2.3 mph E3.7 kmh E 5.8 mph9.3 kmh 29.92 in1013.2 mb - 0.00 in0.0 mm 0.00 in0.0 mm
05:00 AM 48.8°F9.3°C 36.8°F2.7°C 63% 4.6 mph E7.4 kmh E 6.9 mph11.1 kmh 29.92 in1013.2 mb - 0.00 in0.0 mm 0.00 in0.0 mm
04:55 AM 48.9°F9.4°C 36.9°F2.7°C 63% 6.0 mph E9.7 kmh E 7.0 mph11.3 kmh 29.89 in1012.2 mb 0.00 in0.0 mm 0.00 in0.0 mm 0.00 in0.0 mm
04:54 AM 48.9°F9.4°C 36.9°F2.7°C 63% 2.0 mph E3.2 kmh E 6.0 mph9.7 kmh 29.89 in1012.2 mb 0.00 in0.0 mm 0.00 in0.0 mm 0.00 in0.0 mm
04:53 AM 48.9°F9.4°C 36.9°F2.7°C 63% 3.0 mph E4.8 kmh E 6.0 mph9.7 kmh 29.89 in1012.2 mb 0.00 in0.0 mm 0.00 in0.0 mm 0.00 in0.0 mm
04:51 AM 48.9°F9.4°C 36.9°F2.7°C 63% 3.0 mph E4.8 kmh E 6.0 mph9.7 kmh 29.89 in1012.2 mb 0.00 in0.0 mm 0.00 in0.0 mm 0.00 in0.0 mm
04:50 AM 49.0°F9.4°C 36.9°F2.7°C 63% 5.8 mph E9.3 kmh E 9.2 mph14.8 kmh 29.92 in1013.2 mb - 0.00 in0.0 mm 0.00 in0.0 mm
04:40 AM 48.9°F9.4°C 36.5°F2.5°C 62% 2.3 mph ENE3.7 kmh ENE 4.6 mph7.4 kmh 29.92 in1013.2 mb - 0.00 in0.0 mm 0.00 in0.0 mm
04:30 AM 49.4°F9.7°C 36.5°F2.5°C 61% 3.5 mph ENE5.6 kmh ENE 8.1 mph13.0 kmh 29.92 in1013.2 mb - 0.00 in0.0 mm 0.00 in0.0 mm
04:25 AM 49.4°F9.7°C 36.5°F2.5°C 61% 2.0 mph ENE3.2 kmh ENE 8.0 mph12.9 kmh 29.88 in1011.9 mb 0.00 in0.0 mm 0.00 in0.0 mm 0.00 in0.0 mm
04:24 AM 49.4°F9.7°C 36.5°F2.5°C 61% 4.0 mph ENE6.4 kmh ENE 8.0 mph12.9 kmh 29.88 in1011.9 mb 0.00 in0.0 mm 0.00 in0.0 mm 0.00 in0.0 mm
04:23 AM 49.4°F9.7°C 36.5°F2.5°C 61% 5.0 mph ENE8.0 kmh ENE 5.0 mph8.0 kmh 29.88 in1011.9 mb 0.00 in0.0 mm 0.00 in0.0 mm 0.00 in0.0 mm
04:21 AM 49.4°F9.7°C 36.5°F2.5°C 61% 2.0 mph ENE3.2 kmh ENE 3.0 mph4.8 kmh 29.88 in1011.9 mb 0.00 in0.0 mm 0.00 in0.0 mm 0.00 in0.0 mm
04:20 AM 49.5°F9.7°C 36.6°F2.6°C 61% 3.5 mph ENE5.6 kmh ENE 11.5 mph18.5 kmh 29.91 in1012.9 mb - 0.00 in0.0 mm 0.00 in0.0 mm
04:10 AM 50.0°F10.0°C 36.6°F2.6°C 60% 4.6 mph NE7.4 kmh NE 12.7 mph20.4 kmh 29.90 in1012.5 mb - 0.00 in0.0 mm 0.00 in0.0 mm
04:00 AM 50.4°F10.2°C 36.6°F2.6°C 59% 5.8 mph ENE9.3 kmh ENE 13.8 mph22.2 kmh 29.90 in1012.5 mb - 0.00 in0.0 mm 0.00 in0.0 mm
03:55 AM 50.4°F10.2°C 36.6°F2.6°C 59% 10.0 mph ENE16.1 kmh ENE 14.0 mph22.5 kmh 29.86 in1011.2 mb 0.00 in0.0 mm 0.00 in0.0 mm 0.00 in0.0 mm
03:54 AM 50.4°F10.2°C 36.6°F2.6°C 59% 8.0 mph NE12.9 kmh NE 14.0 mph22.5 kmh 29.86 in1011.2 mb 0.00 in0.0 mm 0.00 in0.0 mm 0.00 in0.0 mm
03:52 AM 50.4°F10.2°C 36.6°F2.6°C 59% 7.0 mph E11.3 kmh E 14.0 mph22.5 kmh 29.87 in1011.5 mb 0.00 in0.0 mm 0.00 in0.0 mm 0.00 in0.0 mm
03:50 AM 50.3°F10.2°C 37.0°F2.8°C 60% 12.7 mph ENE20.4 kmh ENE 20.7 mph33.3 kmh 29.89 in1012.2 mb - 0.00 in0.0 mm 0.00 in0.0 mm
03:40 AM 50.2°F10.1°C 36.8°F2.7°C 60% 8.1 mph NE13.0 kmh NE 19.6 mph31.5 kmh 29.89 in1012.2 mb - 0.00 in0.0 mm 0.00 in0.0 mm
03:30 AM 50.2°F10.1°C 37.3°F2.9°C 61% 11.5 mph ENE18.5 kmh ENE 24.2 mph38.9 kmh 29.89 in1012.2 mb - 0.00 in0.0 mm 0.00 in0.0 mm
03:25 AM 50.1°F10.1°C 37.6°F3.1°C 62% 9.0 mph NE14.5 kmh NE 18.0 mph29.0 kmh 29.87 in1011.5 mb 0.00 in0.0 mm 0.00 in0.0 mm 0.00 in0.0 mm
03:23 AM 50.1°F10.1°C 37.6°F3.1°C 62% 9.0 mph E14.5 kmh E 16.0 mph25.7 kmh 29.87 in1011.5 mb 0.00 in0.0 mm 0.00 in0.0 mm 0.00 in0.0 mm
03:20 AM 49.9°F9.9°C 37.4°F3.0°C 62% 10.4 mph NE16.7 kmh NE 17.3 mph27.8 kmh 29.90 in1012.5 mb - 0.00 in0.0 mm 0.00 in0.0 mm
03:10 AM 50.0°F10.0°C 37.9°F3.3°C 63% 13.8 mph E22.2 kmh E 18.4 mph29.6 kmh 29.90 in1012.5 mb - 0.00 in0.0 mm 0.00 in0.0 mm
03:00 AM 50.0°F10.0°C 37.9°F3.3°C 63% 10.4 mph ENE16.7 kmh ENE 25.3 mph40.7 kmh 29.91 in1012.9 mb - 0.00 in0.0 mm 0.00 in0.0 mm
02:55 AM 49.9°F9.9°C 37.8°F3.2°C 63% 15.0 mph E24.1 kmh E 17.0 mph27.4 kmh 29.87 in1011.5 mb 0.00 in0.0 mm 0.00 in0.0 mm 0.00 in0.0 mm
02:53 AM 50.0°F10.0°C 37.9°F3.3°C 63% 11.0 mph ENE17.7 kmh ENE 15.0 mph24.1 kmh 29.87 in1011.5 mb 0.00 in0.0 mm 0.00 in0.0 mm 0.00 in0.0 mm
02:52 AM 50.0°F10.0°C 37.9°F3.3°C 63% 15.0 mph E24.1 kmh E 15.0 mph24.1 kmh 29.88 in1011.9 mb 0.00 in0.0 mm 0.00 in0.0 mm 0.00 in0.0 mm
02:51 AM 50.0°F10.0°C 37.9°F3.3°C 63% 11.0 mph ENE17.7 kmh ENE 15.0 mph24.1 kmh 29.88 in1011.9 mb 0.00 in0.0 mm 0.00 in0.0 mm 0.00 in0.0 mm
02:50 AM 50.2°F10.1°C 38.1°F3.4°C 63% 16.1 mph NE25.9 kmh NE 19.6 mph31.5 kmh 29.91 in1012.9 mb - 0.00 in0.0 mm 0.00 in0.0 mm
02:40 AM 50.3°F10.2°C 37.8°F3.2°C 62% 9.2 mph ENE14.8 kmh ENE 21.9 mph35.2 kmh 29.91 in1012.9 mb - 0.00 in0.0 mm 0.00 in0.0 mm
02:30 AM 50.4°F10.2°C 37.4°F3.0°C 61% 6.9 mph ENE11.1 kmh ENE 13.8 mph22.2 kmh 29.91 in1012.9 mb - 0.00 in0.0 mm 0.00 in0.0 mm
02:25 AM 50.4°F10.2°C 37.1°F2.8°C 60% 9.0 mph NE14.5 kmh NE 14.0 mph22.5 kmh 29.88 in1011.9 mb 0.00 in0.0 mm 0.00 in0.0 mm 0.00 in0.0 mm
02:24 AM 50.5°F10.3°C 37.2°F2.9°C 60% 8.0 mph ENE12.9 kmh ENE 11.0 mph17.7 kmh 29.88 in1011.9 mb 0.00 in0.0 mm 0.00 in0.0 mm 0.00 in0.0 mm
02:23 AM 50.5°F10.3°C 37.2°F2.9°C 60% 8.0 mph ENE12.9 kmh ENE 8.0 mph12.9 kmh 29.88 in1011.9 mb 0.00 in0.0 mm 0.00 in0.0 mm 0.00 in0.0 mm
02:22 AM 50.5°F10.3°C 36.7°F2.6°C 59% 7.0 mph E11.3 kmh E 8.0 mph12.9 kmh 29.88 in1011.9 mb 0.00 in0.0 mm 0.00 in0.0 mm 0.00 in0.0 mm
02:20 AM 50.7°F10.4°C 36.9°F2.7°C 59% 8.1 mph NE13.0 kmh NE 12.7 mph20.4 kmh 29.91 in1012.9 mb - 0.00 in0.0 mm 0.00 in0.0 mm
02:10 AM 51.1°F10.6°C 36.3°F2.4°C 57% 11.5 mph ENE18.5 kmh ENE 19.6 mph31.5 kmh 29.91 in1012.9 mb - 0.00 in0.0 mm 0.00 in0.0 mm
02:00 AM 51.6°F10.9°C 35.0°F1.7°C 53% 11.5 mph NE18.5 kmh NE 19.6 mph31.5 kmh 29.90 in1012.5 mb - 0.00 in0.0 mm 0.00 in0.0 mm
01:55 AM 51.7°F10.9°C 34.7°F1.5°C 52% 12.0 mph NE19.3 kmh NE 14.0 mph22.5 kmh 29.87 in1011.5 mb 0.00 in0.0 mm 0.00 in0.0 mm 0.00 in0.0 mm
01:53 AM 51.8°F11.0°C 34.8°F1.6°C 52% 11.0 mph NE17.7 kmh NE 14.0 mph22.5 kmh 29.87 in1011.5 mb 0.00 in0.0 mm 0.00 in0.0 mm 0.00 in0.0 mm
01:52 AM 51.8°F11.0°C 34.8°F1.6°C 52% 13.0 mph E20.9 kmh E 14.0 mph22.5 kmh 29.87 in1011.5 mb 0.00 in0.0 mm 0.00 in0.0 mm 0.00 in0.0 mm
01:51 AM 51.8°F11.0°C 34.3°F1.3°C 51% 14.0 mph ENE22.5 kmh ENE 14.0 mph22.5 kmh 29.87 in1011.5 mb 0.00 in0.0 mm 0.00 in0.0 mm 0.00 in0.0 mm
01:50 AM 51.8°F11.0°C 34.3°F1.3°C 51% 10.4 mph ENE16.7 kmh ENE 17.3 mph27.8 kmh 29.90 in1012.5 mb - 0.00 in0.0 mm 0.00 in0.0 mm
01:40 AM 50.7°F10.4°C 34.2°F1.2°C 53% 9.2 mph NE14.8 kmh NE 12.7 mph20.4 kmh 29.90 in1012.5 mb - 0.00 in0.0 mm 0.00 in0.0 mm
01:30 AM 49.7°F9.8°C 35.1°F1.7°C 57% 8.1 mph NE13.0 kmh NE 11.5 mph18.5 kmh 29.88 in1011.9 mb - 0.00 in0.0 mm 0.00 in0.0 mm
01:25 AM 49.7°F9.8°C 35.1°F1.7°C 57% 9.0 mph NE14.5 kmh NE 12.0 mph19.3 kmh 29.85 in1010.8 mb 0.00 in0.0 mm 0.00 in0.0 mm 0.00 in0.0 mm
01:24 AM 49.7°F9.8°C 35.1°F1.7°C 57% 6.0 mph NNE9.7 kmh NNE 10.0 mph16.1 kmh 29.85 in1010.8 mb 0.00 in0.0 mm 0.00 in0.0 mm 0.00 in0.0 mm
01:23 AM 49.7°F9.8°C 35.1°F1.7°C 57% 8.0 mph NE12.9 kmh NE 10.0 mph16.1 kmh 29.85 in1010.8 mb 0.00 in0.0 mm 0.00 in0.0 mm 0.00 in0.0 mm
01:22 AM 49.7°F9.8°C 35.1°F1.7°C 57% 8.0 mph NE12.9 kmh NE 10.0 mph16.1 kmh 29.85 in1010.8 mb 0.00 in0.0 mm 0.00 in0.0 mm 0.00 in0.0 mm
01:20 AM 49.7°F9.8°C 35.1°F1.7°C 57% 4.6 mph NNE7.4 kmh NNE 10.4 mph16.7 kmh 29.88 in1011.9 mb - 0.00 in0.0 mm 0.00 in0.0 mm
01:10 AM 49.9°F9.9°C 35.3°F1.8°C 57% 8.1 mph NNE13.0 kmh NNE 11.5 mph18.5 kmh 29.87 in1011.5 mb - 0.00 in0.0 mm 0.00 in0.0 mm
01:00 AM 50.0°F10.0°C 35.3°F1.8°C 57% 9.2 mph NE14.8 kmh NE 11.5 mph18.5 kmh 29.87 in1011.5 mb - 0.00 in0.0 mm 0.00 in0.0 mm
12:55 AM 50.1°F10.1°C 35.5°F1.9°C 57% 7.0 mph NE11.3 kmh NE 11.0 mph17.7 kmh 29.84 in1010.5 mb 0.00 in0.0 mm 0.00 in0.0 mm 0.00 in0.0 mm
12:54 AM 50.2°F10.1°C 35.1°F1.7°C 56% 6.0 mph NE9.7 kmh NE 11.0 mph17.7 kmh 29.84 in1010.5 mb 0.00 in0.0 mm 0.00 in0.0 mm 0.00 in0.0 mm
12:53 AM 50.3°F10.2°C 35.2°F1.8°C 56% 6.0 mph NE9.7 kmh NE 11.0 mph17.7 kmh 29.84 in1010.5 mb 0.00 in0.0 mm 0.00 in0.0 mm 0.00 in0.0 mm
12:52 AM 50.3°F10.2°C 35.2°F1.8°C 56% 9.0 mph NE14.5 kmh NE 11.0 mph17.7 kmh 29.84 in1010.5 mb 0.00 in0.0 mm 0.00 in0.0 mm 0.00 in0.0 mm
12:50 AM 50.2°F10.1°C 35.5°F1.9°C 57% 11.5 mph NNE18.5 kmh NNE 15.0 mph24.1 kmh 29.87 in1011.5 mb - 0.00 in0.0 mm 0.00 in0.0 mm
12:40 AM 50.0°F10.0°C 35.4°F1.9°C 57% 11.5 mph NNE18.5 kmh NNE 12.7 mph20.4 kmh 29.87 in1011.5 mb - 0.00 in0.0 mm 0.00 in0.0 mm
12:30 AM 50.3°F10.2°C 35.2°F1.8°C 56% 6.9 mph NNE11.1 kmh NNE 11.5 mph18.5 kmh 29.86 in1011.2 mb - 0.00 in0.0 mm 0.00 in0.0 mm
12:25 AM 50.5°F10.3°C 35.0°F1.7°C 55% 9.0 mph NNE14.5 kmh NNE 11.0 mph17.7 kmh 29.83 in1010.2 mb 0.00 in0.0 mm 0.00 in0.0 mm 0.00 in0.0 mm
12:24 AM 50.6°F10.3°C 35.0°F1.7°C 55% 9.0 mph NNE14.5 kmh NNE 11.0 mph17.7 kmh 29.83 in1010.2 mb 0.00 in0.0 mm 0.00 in0.0 mm 0.00 in0.0 mm
12:20 AM 51.2°F10.7°C 34.6°F1.4°C 53% 9.2 mph NE14.8 kmh NE 19.6 mph31.5 kmh 29.86 in1011.2 mb - 0.00 in0.0 mm 0.00 in0.0 mm
12:10 AM 52.0°F11.1°C 34.9°F1.6°C 52% 10.4 mph NE16.7 kmh NE 17.3 mph27.8 kmh 29.86 in1011.2 mb - 0.00 in0.0 mm 0.00 in0.0 mm
12:00 AM 51.7°F10.9°C 35.1°F1.7°C 53% 9.2 mph NE14.8 kmh NE 11.5 mph18.5 kmh 29.86 in1011.2 mb - 0.00 in0.0 mm 0.00 in0.0 mm